sensor_id;sensor_type;location;lat;lon;timestamp;P1;durP1;ratioP1;P2;durP2;ratioP2
1577;SDS011;57623;53.608;10.004;2023-02-08T00:00:42;20.07;;;16.53;;
1577;SDS011;57623;53.608;10.004;2023-02-08T00:03:16;19.93;;;17.20;;
1577;SDS011;57623;53.608;10.004;2023-02-08T00:05:46;21.83;;;17.30;;
1577;SDS011;57623;53.608;10.004;2023-02-08T00:08:16;23.00;;;17.63;;
1577;SDS011;57623;53.608;10.004;2023-02-08T00:10:46;20.10;;;17.03;;
1577;SDS011;57623;53.608;10.004;2023-02-08T00:13:19;24.47;;;17.10;;
1577;SDS011;57623;53.608;10.004;2023-02-08T00:15:51;21.50;;;17.40;;
1577;SDS011;57623;53.608;10.004;2023-02-08T00:18:21;23.60;;;18.70;;
1577;SDS011;57623;53.608;10.004;2023-02-08T00:20:53;21.30;;;17.43;;
1577;SDS011;57623;53.608;10.004;2023-02-08T00:23:26;21.17;;;16.80;;
1577;SDS011;57623;53.608;10.004;2023-02-08T00:25:59;21.43;;;16.33;;
1577;SDS011;57623;53.608;10.004;2023-02-08T00:28:33;23.90;;;17.90;;
1577;SDS011;57623;53.608;10.004;2023-02-08T00:31:02;19.97;;;16.53;;
1577;SDS011;57623;53.608;10.004;2023-02-08T00:33:32;21.83;;;17.27;;
1577;SDS011;57623;53.608;10.004;2023-02-08T00:36:03;22.57;;;17.57;;
1577;SDS011;57623;53.608;10.004;2023-02-08T00:38:39;22.50;;;18.37;;
1577;SDS011;57623;53.608;10.004;2023-02-08T00:41:09;22.80;;;17.50;;
1577;SDS011;57623;53.608;10.004;2023-02-08T00:43:51;22.20;;;17.60;;
1577;SDS011;57623;53.608;10.004;2023-02-08T00:46:21;24.23;;;17.90;;
1577;SDS011;57623;53.608;10.004;2023-02-08T00:48:51;22.20;;;16.20;;
1577;SDS011;57623;53.608;10.004;2023-02-08T00:51:20;22.80;;;18.23;;
1577;SDS011;57623;53.608;10.004;2023-02-08T00:53:49;22.63;;;17.47;;
1577;SDS011;57623;53.608;10.004;2023-02-08T00:56:19;23.53;;;17.80;;
1577;SDS011;57623;53.608;10.004;2023-02-08T00:58:47;22.30;;;17.53;;
1577;SDS011;57623;53.608;10.004;2023-02-08T01:01:19;22.77;;;17.53;;
1577;SDS011;57623;53.608;10.004;2023-02-08T01:03:55;23.30;;;17.43;;
1577;SDS011;57623;53.608;10.004;2023-02-08T01:06:25;21.13;;;17.47;;
1577;SDS011;57623;53.608;10.004;2023-02-08T01:09:07;22.23;;;17.07;;
1577;SDS011;57623;53.608;10.004;2023-02-08T01:11:41;24.10;;;17.67;;
1577;SDS011;57623;53.608;10.004;2023-02-08T01:14:23;21.47;;;17.40;;
1577;SDS011;57623;53.608;10.004;2023-02-08T01:16:59;22.80;;;17.80;;
1577;SDS011;57623;53.608;10.004;2023-02-08T01:19:28;23.40;;;17.40;;
1577;SDS011;57623;53.608;10.004;2023-02-08T01:21:56;21.80;;;16.90;;
1577;SDS011;57623;53.608;10.004;2023-02-08T01:24:26;24.33;;;17.83;;
1577;SDS011;57623;53.608;10.004;2023-02-08T01:26:56;24.27;;;18.63;;
1577;SDS011;57623;53.608;10.004;2023-02-08T01:29:36;21.30;;;17.50;;
1577;SDS011;57623;53.608;10.004;2023-02-08T01:32:16;23.93;;;18.50;;
1577;SDS011;57623;53.608;10.004;2023-02-08T01:34:46;22.00;;;18.73;;
1577;SDS011;57623;53.608;10.004;2023-02-08T01:37:18;20.30;;;16.90;;
1577;SDS011;57623;53.608;10.004;2023-02-08T01:39:49;23.90;;;18.60;;
1577;SDS011;57623;53.608;10.004;2023-02-08T01:42:18;22.83;;;17.33;;
1577;SDS011;57623;53.608;10.004;2023-02-08T01:47:56;23.73;;;18.13;;
1577;SDS011;57623;53.608;10.004;2023-02-08T01:50:35;24.17;;;18.47;;
1577;SDS011;57623;53.608;10.004;2023-02-08T01:53:13;24.10;;;18.53;;
1577;SDS011;57623;53.608;10.004;2023-02-08T01:55:44;25.57;;;18.53;;
1577;SDS011;57623;53.608;10.004;2023-02-08T01:58:15;22.97;;;18.50;;
1577;SDS011;57623;53.608;10.004;2023-02-08T02:00:48;19.97;;;17.10;;
1577;SDS011;57623;53.608;10.004;2023-02-08T02:03:24;22.07;;;18.20;;
1577;SDS011;57623;53.608;10.004;2023-02-08T02:06:05;24.13;;;18.30;;
1577;SDS011;57623;53.608;10.004;2023-02-08T02:08:35;26.83;;;18.33;;
1577;SDS011;57623;53.608;10.004;2023-02-08T02:11:06;24.57;;;17.60;;
1577;SDS011;57623;53.608;10.004;2023-02-08T02:13:36;22.97;;;18.70;;
1577;SDS011;57623;53.608;10.004;2023-02-08T02:16:08;22.57;;;18.20;;
1577;SDS011;57623;53.608;10.004;2023-02-08T02:18:47;21.83;;;18.40;;
1577;SDS011;57623;53.608;10.004;2023-02-08T02:21:22;24.63;;;19.00;;
1577;SDS011;57623;53.608;10.004;2023-02-08T02:24:10;25.80;;;19.03;;
1577;SDS011;57623;53.608;10.004;2023-02-08T02:27:16;26.33;;;18.90;;
1577;SDS011;57623;53.608;10.004;2023-02-08T02:33:20;23.90;;;17.60;;
1577;SDS011;57623;53.608;10.004;2023-02-08T02:36:15;22.53;;;18.03;;
1577;SDS011;57623;53.608;10.004;2023-02-08T02:39:02;23.20;;;17.77;;
1577;SDS011;57623;53.608;10.004;2023-02-08T02:41:50;25.20;;;19.30;;
1577;SDS011;57623;53.608;10.004;2023-02-08T02:44:50;23.87;;;18.70;;
1577;SDS011;57623;53.608;10.004;2023-02-08T02:47:26;26.83;;;18.53;;
1577;SDS011;57623;53.608;10.004;2023-02-08T02:50:15;24.43;;;18.77;;
1577;SDS011;57623;53.608;10.004;2023-02-08T02:52:50;26.93;;;19.17;;
1577;SDS011;57623;53.608;10.004;2023-02-08T02:55:25;27.73;;;18.80;;
1577;SDS011;57623;53.608;10.004;2023-02-08T02:57:55;26.13;;;19.80;;
1577;SDS011;57623;53.608;10.004;2023-02-08T03:00:30;25.67;;;18.97;;
1577;SDS011;57623;53.608;10.004;2023-02-08T03:03:05;26.23;;;19.27;;
1577;SDS011;57623;53.608;10.004;2023-02-08T03:05:34;25.37;;;19.93;;
1577;SDS011;57623;53.608;10.004;2023-02-08T03:08:13;27.03;;;19.20;;
1577;SDS011;57623;53.608;10.004;2023-02-08T03:11:12;23.57;;;18.80;;
1577;SDS011;57623;53.608;10.004;2023-02-08T03:13:50;26.40;;;20.00;;
1577;SDS011;57623;53.608;10.004;2023-02-08T03:16:31;26.67;;;19.20;;
1577;SDS011;57623;53.608;10.004;2023-02-08T03:19:06;23.37;;;18.80;;
1577;SDS011;57623;53.608;10.004;2023-02-08T03:21:45;24.67;;;19.00;;
1577;SDS011;57623;53.608;10.004;2023-02-08T03:24:22;25.80;;;18.80;;
1577;SDS011;57623;53.608;10.004;2023-02-08T03:26:56;25.27;;;19.83;;
1577;SDS011;57623;53.608;10.004;2023-02-08T03:29:31;28.70;;;20.27;;
1577;SDS011;57623;53.608;10.004;2023-02-08T03:32:13;27.73;;;18.83;;
1577;SDS011;57623;53.608;10.004;2023-02-08T03:34:45;23.17;;;18.47;;
1577;SDS011;57623;53.608;10.004;2023-02-08T03:37:25;30.20;;;20.47;;
1577;SDS011;57623;53.608;10.004;2023-02-08T03:40:01;23.97;;;19.13;;
1577;SDS011;57623;53.608;10.004;2023-02-08T03:42:39;26.60;;;19.00;;
1577;SDS011;57623;53.608;10.004;2023-02-08T03:45:09;25.37;;;19.40;;
1577;SDS011;57623;53.608;10.004;2023-02-08T03:47:42;26.43;;;19.23;;
1577;SDS011;57623;53.608;10.004;2023-02-08T03:50:13;25.30;;;19.53;;
1577;SDS011;57623;53.608;10.004;2023-02-08T03:52:50;27.90;;;19.73;;
1577;SDS011;57623;53.608;10.004;2023-02-08T03:55:23;25.97;;;19.33;;
1577;SDS011;57623;53.608;10.004;2023-02-08T03:58:02;28.33;;;20.63;;
1577;SDS011;57623;53.608;10.004;2023-02-08T04:00:35;29.10;;;20.07;;
1577;SDS011;57623;53.608;10.004;2023-02-08T04:03:18;26.80;;;19.87;;
1577;SDS011;57623;53.608;10.004;2023-02-08T04:05:50;27.00;;;19.43;;
1577;SDS011;57623;53.608;10.004;2023-02-08T04:08:21;26.17;;;19.20;;
1577;SDS011;57623;53.608;10.004;2023-02-08T04:10:52;26.60;;;19.93;;
1577;SDS011;57623;53.608;10.004;2023-02-08T04:13:20;28.23;;;19.90;;
1577;SDS011;57623;53.608;10.004;2023-02-08T04:15:52;25.73;;;18.83;;
1577;SDS011;57623;53.608;10.004;2023-02-08T04:18:20;27.10;;;20.33;;
1577;SDS011;57623;53.608;10.004;2023-02-08T04:20:50;28.60;;;20.47;;
1577;SDS011;57623;53.608;10.004;2023-02-08T04:23:27;28.27;;;20.77;;
1577;SDS011;57623;53.608;10.004;2023-02-08T04:25:58;28.40;;;21.07;;
1577;SDS011;57623;53.608;10.004;2023-02-08T04:28:28;26.13;;;20.50;;
1577;SDS011;57623;53.608;10.004;2023-02-08T04:30:56;28.40;;;19.90;;
1577;SDS011;57623;53.608;10.004;2023-02-08T04:33:26;26.60;;;20.20;;
1577;SDS011;57623;53.608;10.004;2023-02-08T04:35:55;27.80;;;20.63;;
1577;SDS011;57623;53.608;10.004;2023-02-08T04:38:28;30.73;;;21.17;;
1577;SDS011;57623;53.608;10.004;2023-02-08T04:40:56;28.53;;;21.90;;
1577;SDS011;57623;53.608;10.004;2023-02-08T04:43:31;26.10;;;19.70;;
1577;SDS011;57623;53.608;10.004;2023-02-08T04:46:03;29.03;;;20.87;;
1577;SDS011;57623;53.608;10.004;2023-02-08T04:48:31;32.63;;;20.40;;
1577;SDS011;57623;53.608;10.004;2023-02-08T04:51:01;29.30;;;20.73;;
1577;SDS011;57623;53.608;10.004;2023-02-08T04:53:34;28.40;;;19.70;;
1577;SDS011;57623;53.608;10.004;2023-02-08T04:56:06;26.20;;;19.80;;
1577;SDS011;57623;53.608;10.004;2023-02-08T04:58:41;28.33;;;19.50;;
1577;SDS011;57623;53.608;10.004;2023-02-08T05:01:12;29.53;;;21.00;;
1577;SDS011;57623;53.608;10.004;2023-02-08T05:03:42;25.00;;;19.40;;
1577;SDS011;57623;53.608;10.004;2023-02-08T05:06:15;30.70;;;22.17;;
1577;SDS011;57623;53.608;10.004;2023-02-08T05:08:44;28.67;;;21.70;;
1577;SDS011;57623;53.608;10.004;2023-02-08T05:11:22;27.70;;;20.40;;
1577;SDS011;57623;53.608;10.004;2023-02-08T05:13:53;32.17;;;21.23;;
1577;SDS011;57623;53.608;10.004;2023-02-08T05:16:21;30.00;;;21.07;;
1577;SDS011;57623;53.608;10.004;2023-02-08T05:18:54;27.70;;;20.63;;
1577;SDS011;57623;53.608;10.004;2023-02-08T05:21:32;30.83;;;22.33;;
1577;SDS011;57623;53.608;10.004;2023-02-08T05:24:07;32.53;;;21.77;;
1577;SDS011;57623;53.608;10.004;2023-02-08T05:26:38;30.60;;;21.63;;
1577;SDS011;57623;53.608;10.004;2023-02-08T05:29:15;30.03;;;21.37;;
1577;SDS011;57623;53.608;10.004;2023-02-08T05:31:47;30.87;;;21.37;;
1577;SDS011;57623;53.608;10.004;2023-02-08T05:34:17;30.07;;;21.30;;
1577;SDS011;57623;53.608;10.004;2023-02-08T05:36:45;30.03;;;21.67;;
1577;SDS011;57623;53.608;10.004;2023-02-08T05:39:17;30.80;;;21.00;;
1577;SDS011;57623;53.608;10.004;2023-02-08T05:41:47;31.60;;;22.47;;
1577;SDS011;57623;53.608;10.004;2023-02-08T05:44:18;31.20;;;21.73;;
1577;SDS011;57623;53.608;10.004;2023-02-08T05:46:46;30.10;;;21.97;;
1577;SDS011;57623;53.608;10.004;2023-02-08T05:49:19;31.27;;;20.20;;
1577;SDS011;57623;53.608;10.004;2023-02-08T05:51:54;30.37;;;21.83;;
1577;SDS011;57623;53.608;10.004;2023-02-08T05:54:24;34.20;;;21.80;;
1577;SDS011;57623;53.608;10.004;2023-02-08T05:56:53;33.07;;;21.60;;
1577;SDS011;57623;53.608;10.004;2023-02-08T05:59:23;33.57;;;22.47;;
1577;SDS011;57623;53.608;10.004;2023-02-08T06:01:51;33.73;;;23.00;;
1577;SDS011;57623;53.608;10.004;2023-02-08T06:04:19;34.10;;;22.27;;
1577;SDS011;57623;53.608;10.004;2023-02-08T06:06:47;33.27;;;21.70;;
1577;SDS011;57623;53.608;10.004;2023-02-08T06:09:18;29.30;;;21.60;;
1577;SDS011;57623;53.608;10.004;2023-02-08T06:11:56;28.73;;;21.60;;
1577;SDS011;57623;53.608;10.004;2023-02-08T06:14:30;33.10;;;22.80;;
1577;SDS011;57623;53.608;10.004;2023-02-08T06:17:05;35.60;;;23.60;;
1577;SDS011;57623;53.608;10.004;2023-02-08T06:19:37;35.70;;;23.33;;
1577;SDS011;57623;53.608;10.004;2023-02-08T06:22:07;34.40;;;23.60;;
1577;SDS011;57623;53.608;10.004;2023-02-08T06:24:37;36.57;;;23.23;;
1577;SDS011;57623;53.608;10.004;2023-02-08T06:27:09;34.87;;;23.70;;
1577;SDS011;57623;53.608;10.004;2023-02-08T06:29:43;32.93;;;22.43;;
1577;SDS011;57623;53.608;10.004;2023-02-08T06:32:11;32.33;;;22.63;;
1577;SDS011;57623;53.608;10.004;2023-02-08T06:34:41;35.97;;;22.73;;
1577;SDS011;57623;53.608;10.004;2023-02-08T06:37:10;37.63;;;23.13;;
1577;SDS011;57623;53.608;10.004;2023-02-08T06:39:43;37.00;;;23.90;;
1577;SDS011;57623;53.608;10.004;2023-02-08T06:42:13;33.70;;;22.70;;
1577;SDS011;57623;53.608;10.004;2023-02-08T06:44:42;34.83;;;23.73;;
1577;SDS011;57623;53.608;10.004;2023-02-08T06:47:22;37.83;;;24.10;;
1577;SDS011;57623;53.608;10.004;2023-02-08T06:49:53;34.20;;;22.37;;
1577;SDS011;57623;53.608;10.004;2023-02-08T06:52:22;31.30;;;21.80;;
1577;SDS011;57623;53.608;10.004;2023-02-08T06:54:52;33.10;;;21.83;;
1577;SDS011;57623;53.608;10.004;2023-02-08T06:57:23;34.27;;;23.43;;
1577;SDS011;57623;53.608;10.004;2023-02-08T06:59:56;35.60;;;23.57;;
1577;SDS011;57623;53.608;10.004;2023-02-08T07:02:25;33.97;;;23.37;;
1577;SDS011;57623;53.608;10.004;2023-02-08T07:04:58;39.30;;;23.00;;
1577;SDS011;57623;53.608;10.004;2023-02-08T07:07:27;36.43;;;23.70;;
1577;SDS011;57623;53.608;10.004;2023-02-08T07:09:58;34.57;;;22.47;;
1577;SDS011;57623;53.608;10.004;2023-02-08T07:12:27;38.67;;;22.90;;
1577;SDS011;57623;53.608;10.004;2023-02-08T07:14:55;36.50;;;23.93;;
1577;SDS011;57623;53.608;10.004;2023-02-08T07:17:23;33.07;;;21.67;;
1577;SDS011;57623;53.608;10.004;2023-02-08T07:19:51;35.20;;;23.40;;
1577;SDS011;57623;53.608;10.004;2023-02-08T07:22:22;37.63;;;23.00;;
1577;SDS011;57623;53.608;10.004;2023-02-08T07:24:54;38.73;;;22.90;;
1577;SDS011;57623;53.608;10.004;2023-02-08T07:27:25;39.67;;;23.57;;
1577;SDS011;57623;53.608;10.004;2023-02-08T07:30:02;33.87;;;23.17;;
1577;SDS011;57623;53.608;10.004;2023-02-08T07:32:35;36.77;;;23.93;;
1577;SDS011;57623;53.608;10.004;2023-02-08T10:01:05;33.67;;;21.17;;
1577;SDS011;57623;53.608;10.004;2023-02-08T10:03:41;29.70;;;20.27;;
1577;SDS011;57623;53.608;10.004;2023-02-08T10:06:13;34.83;;;22.47;;
1577;SDS011;57623;53.608;10.004;2023-02-08T10:08:43;33.00;;;21.83;;
1577;SDS011;57623;53.608;10.004;2023-02-08T10:11:22;33.23;;;19.93;;
1577;SDS011;57623;53.608;10.004;2023-02-08T10:14:22;34.70;;;22.10;;
1577;SDS011;57623;53.608;10.004;2023-02-08T10:17:06;33.00;;;22.00;;
1577;SDS011;57623;53.608;10.004;2023-02-08T10:19:49;33.57;;;21.33;;
1577;SDS011;57623;53.608;10.004;2023-02-08T10:22:30;32.10;;;21.80;;
1577;SDS011;57623;53.608;10.004;2023-02-08T10:28:06;32.47;;;22.10;;
1577;SDS011;57623;53.608;10.004;2023-02-08T10:30:50;33.40;;;22.33;;
1577;SDS011;57623;53.608;10.004;2023-02-08T10:33:26;31.13;;;21.27;;
1577;SDS011;57623;53.608;10.004;2023-02-08T10:36:00;34.00;;;21.83;;
1577;SDS011;57623;53.608;10.004;2023-02-08T10:38:43;36.70;;;22.00;;
1577;SDS011;57623;53.608;10.004;2023-02-08T10:41:17;30.47;;;21.40;;
1577;SDS011;57623;53.608;10.004;2023-02-08T10:44:03;30.00;;;20.43;;
1577;SDS011;57623;53.608;10.004;2023-02-08T10:46:42;31.07;;;21.20;;
1577;SDS011;57623;53.608;10.004;2023-02-08T10:49:15;32.13;;;22.30;;
1577;SDS011;57623;53.608;10.004;2023-02-08T10:51:51;34.27;;;22.20;;
1577;SDS011;57623;53.608;10.004;2023-02-08T10:54:25;32.53;;;21.43;;
1577;SDS011;57623;53.608;10.004;2023-02-08T10:56:58;34.10;;;21.20;;
1577;SDS011;57623;53.608;10.004;2023-02-08T10:59:34;32.80;;;22.00;;
1577;SDS011;57623;53.608;10.004;2023-02-08T11:02:19;30.43;;;22.13;;
1577;SDS011;57623;53.608;10.004;2023-02-08T11:05:03;34.30;;;22.80;;
1577;SDS011;57623;53.608;10.004;2023-02-08T11:07:37;33.53;;;23.30;;
1577;SDS011;57623;53.608;10.004;2023-02-08T11:10:13;33.67;;;22.30;;
1577;SDS011;57623;53.608;10.004;2023-02-08T11:12:57;32.53;;;21.77;;
1577;SDS011;57623;53.608;10.004;2023-02-08T11:15:33;34.90;;;23.63;;
1577;SDS011;57623;53.608;10.004;2023-02-08T11:18:18;30.07;;;21.60;;
1577;SDS011;57623;53.608;10.004;2023-02-08T11:20:51;29.13;;;19.80;;
1577;SDS011;57623;53.608;10.004;2023-02-08T11:23:25;33.27;;;22.07;;
1577;SDS011;57623;53.608;10.004;2023-02-08T11:26:11;27.80;;;20.80;;
1577;SDS011;57623;53.608;10.004;2023-02-08T11:28:44;30.83;;;21.50;;
1577;SDS011;57623;53.608;10.004;2023-02-08T11:31:31;36.10;;;22.40;;
1577;SDS011;57623;53.608;10.004;2023-02-08T11:34:04;29.53;;;21.20;;
1577;SDS011;57623;53.608;10.004;2023-02-08T11:36:42;33.23;;;22.60;;
1577;SDS011;57623;53.608;10.004;2023-02-08T11:39:20;31.47;;;23.10;;
1577;SDS011;57623;53.608;10.004;2023-02-08T11:41:55;29.30;;;21.10;;
1577;SDS011;57623;53.608;10.004;2023-02-08T11:44:28;30.70;;;21.70;;
1577;SDS011;57623;53.608;10.004;2023-02-08T11:47:02;28.87;;;21.17;;
1577;SDS011;57623;53.608;10.004;2023-02-08T11:49:50;32.50;;;21.87;;
1577;SDS011;57623;53.608;10.004;2023-02-08T11:52:26;29.33;;;19.93;;
1577;SDS011;57623;53.608;10.004;2023-02-08T11:55:11;29.97;;;20.00;;
1577;SDS011;57623;53.608;10.004;2023-02-08T11:57:56;27.67;;;20.43;;
1577;SDS011;57623;53.608;10.004;2023-02-08T12:00:30;29.00;;;22.13;;
1577;SDS011;57623;53.608;10.004;2023-02-08T12:33:44;19.83;;;18.20;;
1577;SDS011;57623;53.608;10.004;2023-02-08T12:36:38;21.03;;;19.43;;
1577;SDS011;57623;53.608;10.004;2023-02-08T12:39:21;19.47;;;17.87;;
1577;SDS011;57623;53.608;10.004;2023-02-08T12:42:30;20.03;;;18.50;;
1577;SDS011;57623;53.608;10.004;2023-02-08T12:45:25;20.50;;;18.90;;
1577;SDS011;57623;53.608;10.004;2023-02-08T12:48:08;19.87;;;18.20;;
1577;SDS011;57623;53.608;10.004;2023-02-08T12:50:48;20.43;;;18.80;;
1577;SDS011;57623;53.608;10.004;2023-02-08T12:53:28;20.50;;;18.70;;
1577;SDS011;57623;53.608;10.004;2023-02-08T12:56:04;21.00;;;19.20;;
1577;SDS011;57623;53.608;10.004;2023-02-08T12:58:44;21.30;;;19.80;;
1577;SDS011;57623;53.608;10.004;2023-02-08T13:01:32;18.88;;;17.48;;
1577;SDS011;57623;53.608;10.004;2023-02-08T13:04:11;19.30;;;17.80;;
1577;SDS011;57623;53.608;10.004;2023-02-08T13:06:43;19.25;;;17.75;;
1577;SDS011;57623;53.608;10.004;2023-02-08T13:09:21;19.15;;;17.65;;
1577;SDS011;57623;53.608;10.004;2023-02-08T13:12:05;19.45;;;17.75;;
1577;SDS011;57623;53.608;10.004;2023-02-08T13:14:45;18.77;;;17.27;;
1577;SDS011;57623;53.608;10.004;2023-02-08T13:17:33;19.07;;;17.63;;
1577;SDS011;57623;53.608;10.004;2023-02-08T13:20:17;19.10;;;17.50;;
1577;SDS011;57623;53.608;10.004;2023-02-08T13:22:59;18.80;;;17.13;;
1577;SDS011;57623;53.608;10.004;2023-02-08T13:25:33;17.90;;;16.53;;
1577;SDS011;57623;53.608;10.004;2023-02-08T13:28:11;16.70;;;15.20;;
1577;SDS011;57623;53.608;10.004;2023-02-08T13:30:51;17.53;;;16.17;;
1577;SDS011;57623;53.608;10.004;2023-02-08T13:33:27;16.97;;;15.40;;
1577;SDS011;57623;53.608;10.004;2023-02-08T13:36:02;17.57;;;15.90;;
1577;SDS011;57623;53.608;10.004;2023-02-08T13:38:33;17.27;;;15.80;;
1577;SDS011;57623;53.608;10.004;2023-02-08T13:41:16;16.13;;;14.83;;
1577;SDS011;57623;53.608;10.004;2023-02-08T13:43:56;16.17;;;14.80;;
1577;SDS011;57623;53.608;10.004;2023-02-08T13:46:28;15.50;;;14.23;;
1577;SDS011;57623;53.608;10.004;2023-02-08T13:49:10;16.63;;;15.23;;
1577;SDS011;57623;53.608;10.004;2023-02-08T13:52:15;16.27;;;14.87;;
1577;SDS011;57623;53.608;10.004;2023-02-08T14:01:35;15.90;;;14.40;;
1577;SDS011;57623;53.608;10.004;2023-02-08T14:07:16;15.27;;;13.77;;
1577;SDS011;57623;53.608;10.004;2023-02-08T14:10:02;16.33;;;14.23;;
1577;SDS011;57623;53.608;10.004;2023-02-08T14:12:47;17.03;;;13.90;;
1577;SDS011;57623;53.608;10.004;2023-02-08T14:15:30;15.97;;;14.10;;
1577;SDS011;57623;53.608;10.004;2023-02-08T14:18:20;14.40;;;12.97;;
1577;SDS011;57623;53.608;10.004;2023-02-08T14:20:56;14.90;;;13.40;;
1577;SDS011;57623;53.608;10.004;2023-02-08T14:23:30;15.87;;;13.73;;
1577;SDS011;57623;53.608;10.004;2023-02-08T14:26:08;15.17;;;13.20;;
1577;SDS011;57623;53.608;10.004;2023-02-08T14:28:53;15.77;;;13.70;;
1577;SDS011;57623;53.608;10.004;2023-02-08T14:31:34;15.50;;;12.80;;
1577;SDS011;57623;53.608;10.004;2023-02-08T14:34:18;18.23;;;13.43;;
1577;SDS011;57623;53.608;10.004;2023-02-08T14:36:57;14.20;;;11.70;;
1577;SDS011;57623;53.608;10.004;2023-02-08T14:39:32;14.80;;;12.40;;
1577;SDS011;57623;53.608;10.004;2023-02-08T14:42:10;14.17;;;11.90;;
1577;SDS011;57623;53.608;10.004;2023-02-08T14:44:53;14.60;;;11.27;;
1577;SDS011;57623;53.608;10.004;2023-02-08T17:13:44;19.27;;;14.97;;
1577;SDS011;57623;53.608;10.004;2023-02-08T17:16:14;19.47;;;15.70;;
1577;SDS011;57623;53.608;10.004;2023-02-08T17:18:46;19.57;;;15.10;;
1577;SDS011;57623;53.608;10.004;2023-02-08T17:21:20;25.23;;;16.37;;
1577;SDS011;57623;53.608;10.004;2023-02-08T17:24:00;19.77;;;14.57;;
1577;SDS011;57623;53.608;10.004;2023-02-08T17:26:31;22.07;;;15.70;;
1577;SDS011;57623;53.608;10.004;2023-02-08T17:29:14;18.57;;;14.60;;
1577;SDS011;57623;53.608;10.004;2023-02-08T17:31:45;20.40;;;15.80;;
1577;SDS011;57623;53.608;10.004;2023-02-08T17:34:19;21.20;;;15.70;;
1577;SDS011;57623;53.608;10.004;2023-02-08T17:36:56;19.93;;;15.60;;
1577;SDS011;57623;53.608;10.004;2023-02-08T17:39:33;19.77;;;15.07;;
1577;SDS011;57623;53.608;10.004;2023-02-08T17:42:01;19.30;;;14.17;;
1577;SDS011;57623;53.608;10.004;2023-02-08T17:44:38;22.53;;;16.57;;
1577;SDS011;57623;53.608;10.004;2023-02-08T17:47:09;20.43;;;15.57;;
1577;SDS011;57623;53.608;10.004;2023-02-08T17:49:44;21.03;;;15.27;;
1577;SDS011;57623;53.608;10.004;2023-02-08T17:52:16;23.20;;;16.30;;
1577;SDS011;57623;53.608;10.004;2023-02-08T17:54:54;23.03;;;16.40;;
1577;SDS011;57623;53.608;10.004;2023-02-08T17:57:25;26.07;;;17.03;;
1577;SDS011;57623;53.608;10.004;2023-02-08T17:59:57;21.50;;;15.57;;
1577;SDS011;57623;53.608;10.004;2023-02-08T18:02:29;22.17;;;15.93;;
1577;SDS011;57623;53.608;10.004;2023-02-08T18:05:00;22.17;;;16.63;;
1577;SDS011;57623;53.608;10.004;2023-02-08T18:07:34;23.60;;;16.13;;
1577;SDS011;57623;53.608;10.004;2023-02-08T18:10:08;22.80;;;17.70;;
1577;SDS011;57623;53.608;10.004;2023-02-08T18:12:38;24.47;;;18.53;;
1577;SDS011;57623;53.608;10.004;2023-02-08T18:15:14;26.47;;;18.67;;
1577;SDS011;57623;53.608;10.004;2023-02-08T18:17:51;28.60;;;20.00;;
1577;SDS011;57623;53.608;10.004;2023-02-08T18:20:20;26.57;;;18.87;;
1577;SDS011;57623;53.608;10.004;2023-02-08T18:22:52;30.70;;;19.87;;
1577;SDS011;57623;53.608;10.004;2023-02-08T18:25:28;28.73;;;19.90;;
1577;SDS011;57623;53.608;10.004;2023-02-08T18:27:58;26.40;;;21.17;;
1577;SDS011;57623;53.608;10.004;2023-02-08T18:30:30;33.37;;;24.33;;
1577;SDS011;57623;53.608;10.004;2023-02-08T18:33:04;28.00;;;20.83;;
1577;SDS011;57623;53.608;10.004;2023-02-08T18:35:37;30.47;;;20.83;;
1577;SDS011;57623;53.608;10.004;2023-02-08T18:38:10;28.67;;;20.60;;
1577;SDS011;57623;53.608;10.004;2023-02-08T18:40:40;30.10;;;22.00;;
1577;SDS011;57623;53.608;10.004;2023-02-08T18:43:09;31.27;;;21.13;;
1577;SDS011;57623;53.608;10.004;2023-02-08T18:45:39;26.40;;;20.73;;
1577;SDS011;57623;53.608;10.004;2023-02-08T18:48:15;26.47;;;20.60;;
1577;SDS011;57623;53.608;10.004;2023-02-08T18:50:54;34.20;;;21.70;;
1577;SDS011;57623;53.608;10.004;2023-02-08T18:53:32;33.73;;;22.83;;
1577;SDS011;57623;53.608;10.004;2023-02-08T18:56:04;31.83;;;21.43;;
1577;SDS011;57623;53.608;10.004;2023-02-08T18:58:38;34.37;;;22.00;;
1577;SDS011;57623;53.608;10.004;2023-02-08T19:01:17;28.13;;;21.10;;
1577;SDS011;57623;53.608;10.004;2023-02-08T19:03:48;30.33;;;21.50;;
1577;SDS011;57623;53.608;10.004;2023-02-08T19:06:26;31.27;;;22.37;;
1577;SDS011;57623;53.608;10.004;2023-02-08T19:09:01;31.67;;;22.40;;
1577;SDS011;57623;53.608;10.004;2023-02-08T19:11:35;30.80;;;21.60;;
1577;SDS011;57623;53.608;10.004;2023-02-08T19:14:09;31.30;;;22.57;;
1577;SDS011;57623;53.608;10.004;2023-02-08T19:16:40;33.23;;;23.03;;
1577;SDS011;57623;53.608;10.004;2023-02-08T19:19:13;30.90;;;21.90;;
1577;SDS011;57623;53.608;10.004;2023-02-08T19:21:42;30.60;;;22.30;;
1577;SDS011;57623;53.608;10.004;2023-02-08T19:24:12;33.77;;;22.27;;
1577;SDS011;57623;53.608;10.004;2023-02-08T19:26:46;31.77;;;21.70;;
1577;SDS011;57623;53.608;10.004;2023-02-08T19:29:18;32.77;;;21.57;;
1577;SDS011;57623;53.608;10.004;2023-02-08T19:31:59;29.43;;;20.53;;
1577;SDS011;57623;53.608;10.004;2023-02-08T19:34:31;34.20;;;22.80;;
1577;SDS011;57623;53.608;10.004;2023-02-08T19:37:01;31.40;;;21.57;;
1577;SDS011;57623;53.608;10.004;2023-02-08T19:39:38;31.93;;;21.20;;
1577;SDS011;57623;53.608;10.004;2023-02-08T19:42:19;30.47;;;20.83;;
1577;SDS011;57623;53.608;10.004;2023-02-08T19:44:53;29.33;;;20.77;;
1577;SDS011;57623;53.608;10.004;2023-02-08T19:47:26;34.30;;;22.53;;
1577;SDS011;57623;53.608;10.004;2023-02-08T19:50:14;33.03;;;23.47;;
1577;SDS011;57623;53.608;10.004;2023-02-08T19:52:48;32.97;;;21.20;;
1577;SDS011;57623;53.608;10.004;2023-02-08T19:55:16;32.07;;;23.07;;
1577;SDS011;57623;53.608;10.004;2023-02-08T19:57:50;34.47;;;22.47;;
1577;SDS011;57623;53.608;10.004;2023-02-08T20:00:20;31.57;;;22.33;;
1577;SDS011;57623;53.608;10.004;2023-02-08T20:02:51;29.93;;;21.43;;
1577;SDS011;57623;53.608;10.004;2023-02-08T20:05:20;34.60;;;23.53;;
1577;SDS011;57623;53.608;10.004;2023-02-08T20:07:51;34.10;;;23.07;;
1577;SDS011;57623;53.608;10.004;2023-02-08T20:10:23;33.00;;;22.53;;
1577;SDS011;57623;53.608;10.004;2023-02-08T20:12:52;32.90;;;23.93;;
1577;SDS011;57623;53.608;10.004;2023-02-08T20:15:20;37.83;;;23.60;;
1577;SDS011;57623;53.608;10.004;2023-02-08T20:17:56;32.37;;;23.33;;
1577;SDS011;57623;53.608;10.004;2023-02-08T20:20:30;34.07;;;23.07;;
1577;SDS011;57623;53.608;10.004;2023-02-08T20:23:01;32.97;;;22.53;;
1577;SDS011;57623;53.608;10.004;2023-02-08T20:25:49;35.50;;;22.30;;
1577;SDS011;57623;53.608;10.004;2023-02-08T20:28:28;31.60;;;21.73;;
1577;SDS011;57623;53.608;10.004;2023-02-08T20:31:06;34.00;;;23.13;;
1577;SDS011;57623;53.608;10.004;2023-02-08T20:33:40;32.53;;;21.73;;
1577;SDS011;57623;53.608;10.004;2023-02-08T20:36:13;33.80;;;23.77;;
1577;SDS011;57623;53.608;10.004;2023-02-08T20:38:52;34.97;;;23.07;;
1577;SDS011;57623;53.608;10.004;2023-02-08T20:41:24;33.77;;;22.30;;
1577;SDS011;57623;53.608;10.004;2023-02-08T20:44:09;38.43;;;23.90;;
1577;SDS011;57623;53.608;10.004;2023-02-08T20:46:43;33.73;;;23.40;;
1577;SDS011;57623;53.608;10.004;2023-02-08T20:49:16;34.83;;;23.57;;